Buffalo Narrows, Canada
Current Conditions -  °F | °C
As of 6:00 AM on Saturday 25 Oct 2014 (Local Time) from CYVT Reporting Station
Overcast Overcast  
Wind Chill: 24°   Ceiling: 4000
Heat Index: 34°   Visibility: 15mi
Dew Point: 27°   Wind: 14mph
Humidity: 75%   Direction: 330°NNW
Pressure: 29.91"   Gusts: 20mph
Location:  55.87°N, 108.48°W
Report Text: CYVT 251200Z 33012G17KT 15SM SCT020 OVC040 01/M03 A2991 RMK SC3SC5 SLP150
Loading
Personal Weather Stations






























Interactive Weather Map
Tropical Storm Tracking
New forecast layout! Learn more

10-Day Weather Forecast

Advertisements
Track Severe Weather on mobile